createdAt,value
2019-05-30T00:00:24.149Z,4.70
2019-05-30T00:02:53.927Z,4.77
2019-05-30T00:05:22.938Z,4.73
2019-05-30T00:07:51.634Z,4.70
2019-05-30T00:10:20.287Z,5.03
2019-05-30T00:12:48.919Z,5.33
2019-05-30T00:15:17.986Z,4.97
2019-05-30T00:17:46.705Z,5.70
2019-05-30T00:20:15.499Z,5.27
2019-05-30T00:22:44.183Z,5.70
2019-05-30T00:25:12.975Z,5.50
2019-05-30T00:27:41.631Z,5.57
2019-05-30T00:30:23.782Z,5.63
2019-05-30T00:32:40.884Z,5.20
2019-05-30T00:35:10.091Z,5.20
2019-05-30T00:37:38.689Z,5.57
2019-05-30T00:40:08.530Z,4.93
2019-05-30T00:42:37.199Z,5.50
2019-05-30T00:45:17.717Z,4.63
2019-05-30T00:47:37.302Z,4.57
2019-05-30T00:50:06.827Z,4.73
2019-05-30T00:52:35.572Z,5.03
2019-05-30T00:55:07.591Z,4.40
2019-05-30T00:57:36.297Z,4.53
2019-05-30T01:00:08.408Z,4.13
2019-05-30T01:02:37.131Z,3.80
2019-05-30T01:05:08.251Z,4.10
2019-05-30T01:07:37.067Z,4.10
2019-05-30T01:10:07.466Z,4.07
2019-05-30T01:12:36.336Z,3.63
2019-05-30T01:15:07.490Z,3.80
2019-05-30T01:17:36.347Z,3.93
2019-05-30T01:20:07.493Z,4.30
2019-05-30T01:22:36.360Z,4.10
2019-05-30T01:25:07.877Z,4.10
2019-05-30T01:27:37.091Z,3.90
2019-05-30T01:30:08.391Z,4.30
2019-05-30T01:32:37.018Z,4.27
2019-05-30T01:35:08.074Z,4.27
2019-05-30T01:37:37.018Z,4.33
2019-05-30T01:40:08.742Z,3.67
2019-05-30T01:42:37.822Z,3.83
2019-05-30T01:45:10.509Z,3.80
2019-05-30T01:47:39.221Z,3.63
2019-05-30T01:50:09.325Z,3.80
2019-05-30T01:52:38.392Z,3.93
2019-05-30T01:55:09.190Z,4.20
2019-05-30T01:57:38.278Z,4.20
2019-05-30T02:00:19.858Z,4.03
2019-05-30T02:02:40.664Z,3.63
2019-05-30T02:05:11.348Z,3.87
2019-05-30T02:07:40.051Z,3.73
2019-05-30T02:10:10.058Z,3.87
2019-05-30T02:12:39.027Z,4.07
2019-05-30T02:15:08.315Z,4.33
2019-05-30T02:17:37.082Z,3.90
2019-05-30T02:20:07.927Z,4.03
2019-05-30T02:22:36.756Z,3.80
2019-05-30T02:25:08.123Z,3.87
2019-05-30T02:27:36.985Z,3.30
2019-05-30T02:30:11.747Z,3.83
2019-05-30T02:32:39.093Z,4.00
2019-05-30T02:35:10.325Z,4.07
2019-05-30T02:37:38.317Z,3.47
2019-05-30T02:40:10.537Z,3.77
2019-05-30T02:42:38.308Z,3.40
2019-05-30T02:45:09.558Z,2.90
2019-05-30T02:47:40.586Z,3.70
2019-05-30T02:50:11.459Z,3.20
2019-05-30T02:52:40.333Z,3.07
2019-05-30T02:55:12.543Z,2.90
2019-05-30T02:57:39.647Z,2.60
2019-05-30T03:00:13.888Z,2.70
2019-05-30T03:02:39.012Z,2.90
2019-05-30T03:05:10.918Z,3.17
2019-05-30T03:07:38.162Z,2.80
2019-05-30T03:10:09.655Z,2.70
2019-05-30T03:12:37.954Z,2.97
2019-05-30T03:15:11.651Z,2.73
2019-05-30T03:17:37.955Z,2.60
2019-05-30T03:20:14.865Z,2.83
2019-05-30T03:22:38.282Z,2.80
2019-05-30T03:25:07.998Z,2.50
2019-05-30T03:27:37.530Z,2.90
2019-05-30T03:30:13.392Z,2.93
2019-05-30T03:33:03.770Z,2.70
2019-05-30T03:35:14.534Z,2.80
2019-05-30T03:37:38.587Z,3.20
2019-05-30T03:40:08.101Z,3.10
2019-05-30T03:42:39.686Z,3.10
2019-05-30T03:45:11.366Z,2.80
2019-05-30T03:47:41.989Z,3.33
2019-05-30T03:50:17.048Z,3.20
2019-05-30T03:52:44.481Z,3.10
2019-05-30T03:55:14.971Z,3.20
2019-05-30T03:57:49.733Z,3.40
2019-05-30T04:00:33.079Z,3.70
2019-05-30T04:03:10.804Z,3.53
2019-05-30T04:05:43.851Z,3.17
2019-05-30T04:08:16.039Z,3.27
2019-05-30T04:10:47.890Z,3.60
2019-05-30T04:13:22.849Z,3.13
2019-05-30T04:15:51.481Z,3.67
2019-05-30T04:18:20.251Z,3.37
2019-05-30T04:20:48.969Z,3.53
2019-05-30T04:23:19.468Z,3.40
2019-05-30T04:25:59.905Z,3.30
2019-05-30T04:28:25.614Z,3.30
2019-05-30T04:30:54.301Z,3.40
2019-05-30T04:33:32.505Z,3.87
2019-05-30T04:35:53.263Z,3.30
2019-05-30T04:38:21.948Z,3.17
2019-05-30T04:40:50.645Z,2.90
2019-05-30T04:43:20.329Z,2.83
2019-05-30T04:45:49.138Z,2.73
2019-05-30T04:48:18.591Z,2.70
2019-05-30T04:50:47.909Z,2.93
2019-05-30T04:53:18.290Z,2.80
2019-05-30T04:55:48.398Z,2.90
2019-05-30T04:58:19.511Z,2.50
2019-05-30T05:00:47.696Z,2.40
2019-05-30T05:03:23.220Z,2.70
2019-05-30T05:05:46.877Z,2.80
2019-05-30T05:08:15.939Z,3.23
2019-05-30T05:10:45.016Z,2.67
2019-05-30T05:13:14.110Z,3.00
2019-05-30T05:15:43.011Z,2.83
2019-05-30T05:18:12.924Z,3.03
2019-05-30T05:20:41.763Z,3.00
2019-05-30T05:23:10.391Z,2.60
2019-05-30T05:25:39.019Z,2.70
2019-05-30T05:28:07.688Z,2.80
2019-05-30T05:30:36.319Z,2.90
2019-05-30T05:33:05.266Z,2.90
2019-05-30T05:35:34.019Z,3.30
2019-05-30T05:38:02.808Z,3.00
2019-05-30T05:40:31.472Z,2.73
2019-05-30T05:43:00.221Z,2.77
2019-05-30T05:45:28.969Z,3.20
2019-05-30T05:47:57.595Z,3.00
2019-05-30T05:50:26.299Z,2.90
2019-05-30T05:52:54.996Z,2.60
2019-05-30T05:55:23.588Z,2.67
2019-05-30T05:57:52.419Z,3.00
2019-05-30T06:00:23.274Z,2.60
2019-05-30T06:02:52.221Z,2.70
2019-05-30T06:05:22.188Z,3.03
2019-05-30T06:07:51.039Z,3.20
2019-05-30T06:10:19.909Z,2.57
2019-05-30T06:12:48.640Z,2.70
2019-05-30T06:15:18.989Z,2.80
2019-05-30T06:17:47.758Z,3.47
2019-05-30T06:20:19.090Z,2.77
2019-05-30T06:22:47.906Z,2.67
2019-05-30T06:25:18.681Z,2.80
2019-05-30T06:27:46.862Z,3.23
2019-05-30T06:30:15.959Z,2.80
2019-05-30T06:32:44.657Z,2.70
2019-05-30T06:35:13.928Z,3.10
2019-05-30T06:37:42.704Z,3.00
2019-05-30T06:40:12.903Z,2.80
2019-05-30T06:42:41.641Z,2.83
2019-05-30T06:45:10.942Z,3.40
2019-05-30T06:47:39.617Z,3.47
2019-05-30T06:50:09.783Z,3.33
2019-05-30T06:52:38.412Z,3.07
2019-05-30T06:55:07.082Z,3.30
2019-05-30T06:57:35.799Z,3.50
2019-05-30T07:00:06.783Z,2.43
2019-05-30T07:02:35.594Z,2.80
2019-05-30T07:05:06.755Z,2.70
2019-05-30T07:07:35.965Z,2.60
2019-05-30T07:10:07.002Z,2.10
2019-05-30T07:12:35.720Z,2.40
2019-05-30T07:15:11.808Z,2.33
2019-05-30T07:17:40.498Z,2.70
2019-05-30T07:20:11.027Z,2.80
2019-05-30T07:22:39.694Z,3.03
2019-05-30T07:25:09.035Z,2.63
2019-05-30T07:27:37.640Z,2.43
2019-05-30T07:30:08.865Z,2.83
2019-05-30T07:32:37.641Z,3.20
2019-05-30T07:35:07.611Z,2.27
2019-05-30T07:37:36.477Z,2.53
2019-05-30T07:40:07.105Z,2.23
2019-05-30T07:42:35.860Z,2.33
2019-05-30T07:45:07.416Z,2.27
2019-05-30T07:47:36.050Z,2.57
2019-05-30T07:50:06.730Z,2.30
2019-05-30T07:52:35.513Z,2.50
2019-05-30T07:55:09.383Z,2.33
2019-05-30T07:57:40.999Z,2.23
2019-05-30T08:00:12.013Z,2.40
2019-05-30T08:02:40.661Z,2.00
2019-05-30T08:05:23.667Z,2.00
2019-05-30T08:07:42.744Z,2.70
2019-05-30T08:10:13.622Z,2.10
2019-05-30T08:12:42.381Z,1.90
2019-05-30T08:15:11.709Z,3.23
2019-05-30T08:17:44.138Z,1.80
2019-05-30T08:20:11.162Z,1.90
2019-05-30T08:22:39.816Z,1.87
2019-05-30T08:25:08.799Z,2.03
2019-05-30T08:27:38.536Z,2.00
2019-05-30T08:30:09.250Z,2.20
2019-05-30T08:32:38.935Z,1.90
2019-05-30T08:35:08.439Z,1.60
2019-05-30T08:37:37.423Z,2.30
2019-05-30T08:40:08.171Z,1.47
2019-05-30T08:42:38.191Z,1.40
2019-05-30T08:45:10.016Z,1.73
2019-05-30T08:47:40.357Z,1.57
2019-05-30T08:50:10.776Z,1.40
2019-05-30T08:52:40.867Z,1.60
2019-05-30T08:55:12.944Z,1.80
2019-05-30T08:57:41.556Z,1.60
2019-05-30T09:00:12.249Z,1.70
2019-05-30T09:02:41.149Z,2.00
2019-05-30T09:05:10.636Z,2.27
2019-05-30T09:07:40.234Z,2.00
2019-05-30T09:10:10.391Z,2.10
2019-05-30T09:12:42.095Z,1.90
2019-05-30T09:15:11.449Z,2.67
2019-05-30T09:17:40.554Z,1.80
2019-05-30T09:20:11.356Z,1.43
2019-05-30T09:22:41.547Z,1.60
2019-05-30T09:25:11.261Z,1.60
2019-05-30T09:27:40.885Z,1.30
2019-05-30T09:30:12.523Z,1.50
2019-05-30T09:32:41.700Z,1.70
2019-05-30T09:35:13.007Z,1.60
2019-05-30T09:37:42.404Z,1.83
2019-05-30T09:40:12.713Z,1.50
2019-05-30T09:42:43.014Z,0.90
2019-05-30T09:45:13.226Z,1.20
2019-05-30T09:47:43.695Z,1.20
2019-05-30T09:50:12.448Z,1.60
2019-05-30T09:52:42.208Z,1.60
2019-05-30T09:55:11.916Z,2.17
2019-05-30T09:57:42.401Z,1.60
2019-05-30T10:00:13.563Z,1.90
2019-05-30T10:02:43.499Z,1.70
2019-05-30T10:05:14.691Z,1.50
2019-05-30T10:07:45.010Z,1.63
2019-05-30T10:10:16.487Z,1.90
2019-05-30T10:12:46.998Z,2.07
2019-05-30T10:15:17.724Z,2.27
2019-05-30T10:17:47.782Z,1.70
2019-05-30T10:20:17.285Z,2.03
2019-05-30T10:22:47.073Z,2.30
2019-05-30T10:25:16.429Z,2.53
2019-05-30T10:27:46.409Z,2.13
2019-05-30T10:30:16.224Z,2.00
2019-05-30T10:32:45.424Z,2.60
2019-05-30T10:35:15.662Z,1.80
2019-05-30T10:37:46.761Z,2.00
2019-05-30T10:40:15.349Z,1.90
2019-05-30T10:42:44.028Z,2.10
2019-05-30T10:45:14.231Z,2.57
2019-05-30T10:47:42.898Z,2.23
2019-05-30T10:50:13.703Z,1.80
2019-05-30T10:52:42.308Z,1.70
2019-05-30T10:55:12.979Z,1.53
2019-05-30T10:57:41.599Z,1.80
2019-05-30T11:00:13.260Z,1.60
2019-05-30T11:02:41.997Z,2.27
2019-05-30T11:05:11.735Z,2.03
2019-05-30T11:08:03.920Z,2.70
2019-05-30T11:10:38.120Z,2.90
2019-05-30T11:13:09.354Z,2.63
2019-05-30T11:15:37.952Z,2.40
2019-05-30T11:18:06.792Z,2.00
2019-05-30T11:20:35.463Z,2.40
2019-05-30T11:23:04.413Z,1.60
2019-05-30T11:25:33.673Z,2.17
2019-05-30T11:28:02.280Z,2.13
2019-05-30T11:30:31.186Z,1.47
2019-05-30T11:33:00.035Z,1.60
2019-05-30T11:35:28.747Z,2.10
2019-05-30T11:37:57.439Z,1.97
2019-05-30T11:40:26.047Z,2.00
2019-05-30T11:42:55.473Z,3.10
2019-05-30T11:45:24.497Z,2.77
2019-05-30T11:47:53.848Z,3.73
2019-05-30T11:50:22.923Z,2.60
2019-05-30T11:52:51.755Z,4.03
2019-05-30T11:55:20.557Z,3.57
2019-05-30T11:57:49.994Z,2.50
2019-05-30T12:00:20.668Z,2.10
2019-05-30T12:02:50.184Z,1.93
2019-05-30T12:05:19.213Z,2.33
2019-05-30T12:07:47.951Z,3.07
2019-05-30T12:10:17.139Z,2.17
2019-05-30T12:12:45.862Z,2.60
2019-05-30T12:15:15.453Z,2.67
2019-05-30T12:17:44.083Z,3.20
2019-05-30T12:20:12.868Z,3.90
2019-05-30T12:22:41.649Z,3.27
2019-05-30T12:25:10.782Z,2.70
2019-05-30T12:27:39.411Z,2.87
2019-05-30T12:30:09.590Z,3.00
2019-05-30T12:32:38.197Z,2.30
2019-05-30T12:35:07.949Z,2.30
2019-05-30T12:37:53.366Z,2.77
2019-05-30T12:40:11.710Z,2.80
2019-05-30T12:42:40.322Z,2.10
2019-05-30T12:45:09.922Z,2.43
2019-05-30T12:47:38.558Z,2.20
2019-05-30T12:50:10.143Z,2.23
2019-05-30T12:52:38.848Z,2.40
2019-05-30T12:55:08.797Z,2.30
2019-05-30T12:57:37.414Z,2.27
2019-05-30T13:00:17.989Z,2.30
2019-05-30T13:02:46.608Z,2.20
2019-05-30T13:05:15.607Z,2.80
2019-05-30T13:07:44.222Z,2.90
2019-05-30T13:10:13.034Z,2.27
2019-05-30T13:12:41.688Z,2.23
2019-05-30T13:15:12.167Z,2.90
2019-05-30T13:17:42.587Z,2.47
2019-05-30T13:20:11.720Z,2.70
2019-05-30T13:22:42.675Z,2.37
2019-05-30T13:25:14.343Z,1.70
2019-05-30T13:27:44.666Z,2.00
2019-05-30T13:30:13.970Z,2.27
2019-05-30T13:32:42.730Z,2.80
2019-05-30T13:35:11.572Z,2.53
2019-05-30T13:37:40.208Z,2.40
2019-05-30T13:40:24.351Z,2.70
2019-05-30T13:42:43.604Z,2.10
2019-05-30T13:45:13.411Z,1.90
2019-05-30T13:47:42.054Z,1.90
2019-05-30T13:50:14.480Z,1.47
2019-05-30T13:52:43.520Z,1.50
2019-05-30T13:55:12.843Z,1.40
2019-05-30T13:57:41.534Z,1.60
2019-05-30T14:00:12.322Z,1.73
2019-05-30T14:02:41.037Z,1.50
2019-05-30T14:05:10.535Z,1.60
2019-05-30T14:07:39.492Z,1.80
2019-05-30T14:10:08.934Z,1.70
2019-05-30T14:12:37.701Z,1.80
2019-05-30T14:15:14.016Z,1.90
2019-05-30T14:17:41.779Z,1.00
2019-05-30T14:20:12.751Z,1.07
2019-05-30T14:22:41.437Z,1.10
2019-05-30T14:25:11.803Z,1.00
2019-05-30T14:27:40.655Z,0.90
2019-05-30T14:30:12.907Z,0.60
2019-05-30T14:32:41.918Z,1.10
2019-05-30T14:35:13.295Z,0.93
2019-05-30T14:37:41.360Z,1.30
2019-05-30T14:40:14.799Z,1.37
2019-05-30T14:42:43.531Z,1.10
2019-05-30T14:45:14.999Z,1.20
2019-05-30T14:47:43.675Z,1.67
2019-05-30T14:50:14.138Z,0.90
2019-05-30T14:52:42.834Z,0.97
2019-05-30T14:55:13.276Z,1.30
2019-05-30T14:57:42.230Z,1.47
2019-05-30T15:00:13.721Z,1.60
2019-05-30T15:02:42.892Z,1.20
2019-05-30T15:05:13.702Z,1.00
2019-05-30T15:07:42.812Z,1.20
2019-05-30T15:10:13.552Z,1.10
2019-05-30T15:12:42.303Z,1.20
2019-05-30T15:15:16.749Z,1.10
2019-05-30T15:17:44.340Z,1.27
2019-05-30T15:20:13.888Z,1.60
2019-05-30T15:22:42.761Z,1.20
2019-05-30T15:25:15.933Z,1.07
2019-05-30T15:27:43.392Z,1.33
2019-05-30T15:30:16.703Z,1.00
2019-05-30T15:32:45.767Z,1.03
2019-05-30T15:35:15.516Z,1.00
2019-05-30T15:37:44.554Z,1.20
2019-05-30T15:40:15.067Z,1.20
2019-05-30T15:42:43.886Z,1.17
2019-05-30T15:45:14.008Z,1.37
2019-05-30T15:47:42.890Z,1.60
2019-05-30T15:50:14.155Z,1.23
2019-05-30T15:52:43.658Z,1.30
2019-05-30T15:55:13.218Z,1.40
2019-05-30T15:57:42.130Z,1.70
2019-05-30T16:00:15.957Z,1.50
2019-05-30T16:02:44.851Z,2.00
2019-05-30T16:05:14.597Z,1.83
2019-05-30T16:07:43.388Z,1.60
2019-05-30T16:10:12.803Z,1.80
2019-05-30T16:12:41.749Z,1.80
2019-05-30T16:15:11.663Z,2.00
2019-05-30T16:17:40.661Z,2.03
2019-05-30T16:20:09.975Z,2.27
2019-05-30T16:22:39.472Z,2.00
2019-05-30T16:25:08.538Z,1.53
2019-05-30T16:27:37.178Z,1.30
2019-05-30T16:30:07.899Z,1.00
2019-05-30T16:32:36.907Z,1.10
2019-05-30T16:35:07.482Z,1.50
2019-05-30T16:37:36.227Z,1.40
2019-05-30T16:40:09.318Z,1.30
2019-05-30T16:42:37.921Z,1.87
2019-05-30T16:45:10.816Z,2.10
2019-05-30T16:47:39.629Z,2.73
2019-05-30T16:50:14.506Z,2.63
2019-05-30T16:52:43.380Z,2.83
2019-05-30T16:55:12.698Z,3.10
2019-05-30T16:57:41.386Z,3.30
2019-05-30T17:00:12.512Z,3.53
2019-05-30T17:02:41.252Z,3.83
2019-05-30T17:05:10.547Z,4.23
2019-05-30T17:07:39.144Z,4.03
2019-05-30T17:10:22.358Z,4.10
2019-05-30T17:12:39.574Z,4.20
2019-05-30T17:15:09.967Z,4.03
2019-05-30T17:17:38.605Z,4.63
2019-05-30T17:20:08.144Z,4.77
2019-05-30T17:22:36.951Z,4.43
2019-05-30T17:25:07.419Z,5.00
2019-05-30T17:27:36.163Z,4.77
2019-05-30T17:30:10.546Z,5.50
2019-05-30T17:32:39.231Z,5.80
2019-05-30T17:35:08.435Z,6.07
2019-05-30T17:37:37.099Z,6.20
2019-05-30T17:40:07.874Z,6.37
2019-05-30T17:42:37.291Z,6.80
2019-05-30T17:45:10.062Z,6.30
2019-05-30T17:47:38.874Z,6.83
2019-05-30T17:50:09.125Z,6.70
2019-05-30T17:52:37.899Z,6.77
2019-05-30T17:55:10.495Z,6.43
2019-05-30T17:57:39.326Z,6.67
2019-05-30T18:00:11.693Z,6.70
2019-05-30T18:02:41.270Z,7.20
2019-05-30T18:05:12.617Z,6.83
2019-05-30T18:07:41.112Z,7.03
2019-05-30T18:10:10.588Z,7.13
2019-05-30T18:12:40.852Z,7.37
2019-05-30T18:15:16.338Z,6.90
2019-05-30T18:17:45.506Z,7.17
2019-05-30T18:20:14.943Z,7.73
2019-05-30T18:22:43.556Z,7.30
2019-05-30T18:25:13.023Z,7.97
2019-05-30T18:27:41.663Z,8.07
2019-05-30T18:30:11.624Z,7.83
2019-05-30T18:32:40.241Z,8.40
2019-05-30T18:35:10.544Z,8.00
2019-05-30T18:37:39.566Z,7.93
2019-05-30T18:40:08.962Z,8.93
2019-05-30T18:42:37.695Z,8.30
2019-05-30T18:45:10.836Z,8.43
2019-05-30T18:47:39.512Z,8.50
2019-05-30T18:50:09.236Z,8.43
2019-05-30T18:52:37.942Z,8.30
2019-05-30T18:55:09.782Z,8.13
2019-05-30T18:57:38.489Z,8.00
2019-05-30T19:00:09.514Z,8.77
2019-05-30T19:02:38.776Z,8.30
2019-05-30T19:05:10.670Z,8.60
2019-05-30T19:07:39.459Z,8.23
2019-05-30T19:10:09.032Z,8.20
2019-05-30T19:12:37.766Z,8.70
2019-05-30T19:15:08.055Z,8.50
2019-05-30T19:17:36.795Z,8.67
2019-05-30T19:20:08.754Z,8.30
2019-05-30T19:22:37.458Z,8.37
2019-05-30T19:25:07.551Z,8.43
2019-05-30T19:27:37.084Z,8.53
2019-05-30T19:30:08.399Z,8.40
2019-05-30T19:32:37.157Z,9.40
2019-05-30T19:35:07.430Z,8.87
2019-05-30T19:37:37.411Z,9.13
2019-05-30T19:40:06.459Z,8.90
2019-05-30T19:42:35.604Z,9.27
2019-05-30T19:45:06.765Z,9.23
2019-05-30T19:47:36.580Z,9.50
2019-05-30T19:50:08.677Z,10.13
2019-05-30T19:52:37.500Z,9.73
2019-05-30T19:55:07.221Z,9.73
2019-05-30T19:57:36.008Z,9.43
2019-05-30T20:00:07.160Z,9.27
2019-05-30T20:02:36.130Z,10.23
2019-05-30T20:05:06.445Z,9.70
2019-05-30T20:07:35.168Z,9.60
2019-05-30T20:10:07.046Z,9.00
2019-05-30T20:12:36.921Z,9.70
2019-05-30T20:15:12.721Z,9.00
2019-05-30T20:17:42.004Z,8.47
2019-05-30T20:20:11.223Z,9.50
2019-05-30T20:22:40.249Z,8.83
2019-05-30T20:25:10.090Z,8.80
2019-05-30T20:27:39.043Z,8.83
2019-05-30T20:30:10.283Z,9.07
2019-05-30T20:32:39.044Z,9.60
2019-05-30T20:35:08.156Z,8.60
2019-05-30T20:37:36.965Z,9.10
2019-05-30T20:40:11.930Z,8.87
2019-05-30T20:42:41.087Z,8.73
2019-05-30T20:45:10.472Z,8.90
2019-05-30T20:47:42.190Z,8.60
2019-05-30T20:50:10.140Z,8.30
2019-05-30T20:52:41.845Z,8.90
2019-05-30T20:55:09.609Z,8.63
2019-05-30T20:57:38.449Z,8.87
2019-05-30T21:00:11.336Z,8.83
2019-05-30T21:02:40.880Z,8.90
2019-05-30T21:05:10.913Z,8.97
2019-05-30T21:07:41.938Z,9.10
2019-05-30T21:10:12.258Z,9.20
2019-05-30T21:12:44.780Z,9.00
2019-05-30T21:15:11.535Z,8.93
2019-05-30T21:17:41.762Z,8.70
2019-05-30T21:20:11.748Z,9.03
2019-05-30T21:22:40.725Z,9.30
2019-05-30T21:25:10.326Z,8.83
2019-05-30T21:27:39.187Z,9.00
2019-05-30T21:30:08.945Z,9.07
2019-05-30T21:32:38.435Z,8.77
2019-05-30T21:35:08.507Z,9.30
2019-05-30T21:37:37.694Z,8.57
2019-05-30T21:40:08.064Z,8.53
2019-05-30T21:42:51.471Z,8.97
2019-05-30T21:45:08.209Z,8.47
2019-05-30T21:47:36.878Z,8.63
2019-05-30T21:50:08.030Z,8.50
2019-05-30T21:52:36.674Z,9.07
2019-05-30T21:55:09.229Z,8.23
2019-05-30T21:57:37.922Z,8.20
2019-05-30T22:00:11.741Z,8.20
2019-05-30T22:02:40.837Z,8.20
2019-05-30T22:05:09.843Z,8.43
2019-05-30T22:07:38.526Z,7.87
2019-05-30T22:10:07.439Z,7.87
2019-05-30T22:12:36.130Z,7.73
2019-05-30T22:15:05.945Z,8.00
2019-05-30T22:17:34.626Z,7.83
2019-05-30T22:20:04.503Z,7.67
2019-05-30T22:22:33.222Z,7.13
2019-05-30T22:25:01.911Z,7.60
2019-05-30T22:27:30.599Z,7.23
2019-05-30T22:29:59.286Z,7.60
2019-05-30T22:32:27.968Z,7.13
2019-05-30T22:34:56.714Z,7.00
2019-05-30T22:37:25.399Z,7.57
2019-05-30T22:39:54.051Z,7.53
2019-05-30T22:42:22.709Z,7.70
2019-05-30T22:44:52.290Z,7.37
2019-05-30T22:47:21.216Z,7.57
2019-05-30T22:49:50.744Z,7.53
2019-05-30T22:52:19.675Z,7.60
2019-05-30T22:54:49.085Z,6.97
2019-05-30T22:57:17.968Z,7.30
2019-05-30T22:59:46.740Z,7.20
2019-05-30T23:02:15.486Z,6.67
2019-05-30T23:04:44.161Z,7.17
2019-05-30T23:07:12.854Z,7.37
2019-05-30T23:09:41.506Z,7.40
2019-05-30T23:12:10.318Z,7.27
2019-05-30T23:14:39.019Z,7.80
2019-05-30T23:17:07.707Z,7.57
2019-05-30T23:19:36.419Z,7.33
2019-05-30T23:22:05.228Z,7.77
2019-05-30T23:24:33.926Z,8.10
2019-05-30T23:27:02.602Z,7.67
2019-05-30T23:29:31.308Z,7.23
2019-05-30T23:31:59.982Z,7.77
2019-05-30T23:34:28.706Z,8.20
2019-05-30T23:36:58.651Z,7.53
2019-05-30T23:39:27.490Z,7.17
2019-05-30T23:41:57.147Z,8.00
2019-05-30T23:44:25.998Z,7.57
2019-05-30T23:46:55.555Z,7.70
2019-05-30T23:49:24.330Z,7.80
2019-05-30T23:51:54.569Z,7.57
2019-05-30T23:54:23.408Z,7.33
2019-05-30T23:56:56.748Z,7.53
2019-05-30T23:59:25.474Z,7.40
